Terminal Aerodrome Forecast
Issued by NWS Atlanta, GA

Home | Current Version | Previous Version | Text Only | Print | Product List | Glossary On
Versions: 1 2 3 4 5 6 7 8 9 10 11 12 13 14 15 16 17 18 19 20 21 22 23 24 25 26 27 28 29 30 31 32 33 34 35
000
FTUS42 KFFC 010525
TAFAHN
TAF
KAHN 010525Z 0106/0206 VRB03KT P6SM FEW045 SCT090
     FM010800 26003KT 4SM BR SCT010 SCT060
     FM011400 26006KT P6SM SCT050 PROB30 0119/0123 TSRA BKN035CB=

USA.gov is the U.S. government's official web portal to all federal, state and local government web resources and services.